Impacts TAF Board
For situational awareness. Not to be used for flight planning purposes.
IDs:

KMSP - Minneapolis-St Paul, MN, US

Issued at 0852 UTC 17 Feb 2019
Updated at 0953 UTC 17 Feb 2019
Potential Impact None Slight Moderate High
Time<<18/10Z 18/11Z 18/12Z 18/13Z 18/14Z 18/15Z 18/16Z 18/17Z 18/18Z 18/19Z 18/20Z 18/21Z 18/22Z
Type PRVL PRVL
VIS >6 >6
CIG 80 80
Cover OVC OVC
FltCat VFR VFR
WX -- --
WDir 360 360
WSpd 7 7
WGst -- --
Raw TAF
KMSP 170852Z 1709/1812 08008KT P6SM OVC100
  FM171400 05011KT 2SM -SN BR OVC025
  FM172200 02010KT 5SM -SN BR OVC025
  FM180200 36007KT P6SM SCT025 OVC080


METAR Board
Radar Display
Forecast Discussion
For situational awareness. Not to be used for flight planning purposes.